Attica, New York
Current Conditions -  °F | °C
As of 7:54 PM on Wednesday 17 Dec 2014 (Local Time) from KBUF Reporting Station
Light Snow Light Snow  
Wind Chill: 21°   Ceiling: 2300
Heat Index: 32°   Visibility: 4mi
Dew Point: 27°   Wind: 16mph
Humidity: 82%   Direction: 260°W
Pressure: 29.98"   Gusts: 28mph
Location:  42.86°N, 78.28°W
Report Text: KBUF 180054Z 26014G24KT 4SM -SN SCT017 BKN023 OVC028 00/M03 A2998 RMK AO2 SLP159 P0000 T00001028
Loading
Personal Weather Stations






























Interactive Weather Map New forecast layout! Learn more

10-Day Weather Forecast

Advertisements
Track Severe Weather on mobile